createdAt,value
2022-09-20T00:03:36.656Z,6.80
2022-09-20T00:06:04.281Z,10.00
2022-09-20T00:13:28.973Z,10.57
2022-09-20T00:15:55.751Z,9.45
2022-09-20T00:21:28.726Z,7.25
2022-09-20T00:23:57.469Z,7.32
2022-09-20T00:26:24.459Z,11.27
2022-09-20T00:28:51.960Z,5.22
2022-09-20T00:31:19.121Z,6.82
2022-09-20T00:36:29.724Z,5.95
2022-09-20T00:38:57.040Z,7.68
2022-09-20T00:41:23.674Z,8.00
2022-09-20T00:43:50.495Z,8.15
2022-09-20T00:49:05.758Z,6.18
2022-09-20T00:51:34.413Z,7.35
2022-09-20T00:59:04.269Z,7.28
2022-09-20T01:01:31.988Z,7.22
2022-09-20T01:03:59.540Z,6.28
2022-09-20T01:06:26.274Z,6.00
2022-09-20T01:08:54.006Z,5.10
2022-09-20T01:11:20.574Z,7.30
2022-09-20T01:16:14.064Z,6.55
2022-09-20T01:18:41.339Z,6.38
2022-09-20T01:23:34.608Z,8.15
2022-09-20T01:26:16.680Z,9.98
2022-09-20T01:28:47.907Z,8.68
2022-09-20T01:31:24.838Z,7.65
2022-09-20T01:34:11.745Z,9.90
2022-09-20T01:39:11.207Z,7.88
2022-09-20T01:41:40.681Z,6.70
2022-09-20T01:44:07.262Z,8.70
2022-09-20T01:46:35.093Z,7.50
2022-09-20T01:49:04.799Z,8.65
2022-09-20T01:51:46.543Z,8.68
2022-09-20T01:54:16.320Z,9.45
2022-09-20T01:56:54.814Z,6.57
2022-09-20T01:59:24.191Z,7.30
2022-09-20T02:01:54.340Z,7.70
2022-09-20T02:04:40.893Z,7.45
2022-09-20T02:07:13.640Z,6.03
2022-09-20T02:10:06.282Z,7.88
2022-09-20T02:12:51.705Z,6.20
2022-09-20T02:15:24.321Z,8.93
2022-09-20T02:18:00.089Z,9.82
2022-09-20T02:20:26.707Z,8.75
2022-09-20T02:23:05.031Z,9.50
2022-09-20T02:28:29.898Z,9.05
2022-09-20T02:31:10.543Z,7.07
2022-09-20T02:33:52.427Z,13.18
2022-09-20T02:36:18.988Z,9.23
2022-09-20T02:38:45.592Z,10.27
2022-09-20T02:41:24.217Z,8.52
2022-09-20T02:43:50.869Z,19.80
2022-09-20T02:46:37.722Z,10.07
2022-09-20T02:49:08.385Z,9.02
2022-09-20T02:51:43.877Z,11.30
2022-09-20T02:54:13.976Z,8.13
2022-09-20T02:56:43.432Z,11.35
2022-09-20T02:59:17.038Z,7.78
2022-09-20T03:02:01.865Z,7.97
2022-09-20T03:07:09.070Z,11.25
2022-09-20T03:12:27.493Z,9.32
2022-09-20T03:14:54.231Z,6.80
2022-09-20T03:17:23.573Z,7.07
2022-09-20T03:20:19.436Z,7.20
2022-09-20T03:22:54.906Z,11.55
2022-09-20T03:27:53.067Z,10.02
2022-09-20T03:35:50.922Z,14.23
2022-09-20T03:38:17.538Z,12.48
2022-09-20T03:41:05.341Z,13.23
2022-09-20T03:43:50.226Z,13.88
2022-09-20T03:49:14.723Z,11.13
2022-09-20T03:51:48.981Z,16.55
2022-09-20T03:54:15.612Z,13.80
2022-09-20T03:56:58.889Z,16.63
2022-09-20T03:59:31.494Z,14.30
2022-09-20T04:04:35.640Z,14.93
2022-09-20T04:07:20.860Z,16.00
2022-09-20T04:12:42.420Z,15.00
2022-09-20T04:22:56.194Z,17.13
2022-09-20T04:25:27.801Z,13.63
2022-09-20T04:38:23.506Z,11.05
2022-09-20T04:41:00.398Z,8.63
2022-09-20T04:43:32.105Z,8.60
2022-09-20T04:45:58.919Z,9.18
2022-09-20T04:48:38.255Z,6.68
2022-09-20T04:51:07.682Z,7.55
2022-09-20T04:53:37.308Z,7.18
2022-09-20T04:56:36.119Z,7.20
2022-09-20T04:59:06.488Z,6.65
2022-09-20T05:04:17.290Z,7.78
2022-09-20T05:06:44.405Z,8.98
2022-09-20T05:09:26.303Z,7.38
2022-09-20T05:11:52.899Z,11.73
2022-09-20T05:14:24.811Z,5.43
2022-09-20T05:19:36.770Z,12.13
2022-09-20T05:22:30.023Z,25.27
2022-09-20T05:24:56.684Z,32.63
2022-09-20T05:27:46.561Z,20.08
2022-09-20T05:30:13.244Z,24.13
2022-09-20T05:35:31.718Z,18.05
2022-09-20T05:37:59.280Z,11.38
2022-09-20T05:40:29.249Z,7.65
2022-09-20T05:43:01.938Z,8.15
2022-09-20T05:45:42.576Z,10.20
2022-09-20T05:48:21.406Z,14.00
2022-09-20T05:53:39.828Z,6.70
2022-09-20T05:58:53.582Z,9.55
2022-09-20T06:09:01.216Z,6.65
2022-09-20T06:11:41.340Z,6.40
2022-09-20T06:14:15.638Z,6.20
2022-09-20T06:19:31.982Z,5.97
2022-09-20T06:22:03.722Z,7.20
2022-09-20T06:27:03.071Z,7.13
2022-09-20T06:29:31.109Z,7.13
2022-09-20T06:34:23.426Z,5.35
2022-09-20T06:37:31.451Z,6.65
2022-09-20T06:40:29.005Z,5.95
2022-09-20T06:42:56.083Z,7.97
2022-09-20T06:45:22.697Z,9.52
2022-09-20T06:47:49.325Z,13.95
2022-09-20T06:52:43.184Z,10.93
2022-09-20T06:55:14.197Z,11.55
2022-09-20T06:57:40.776Z,11.40
2022-09-20T07:00:10.813Z,16.92
2022-09-20T07:03:05.308Z,14.45
2022-09-20T07:05:32.039Z,15.40
2022-09-20T07:07:59.001Z,15.98
2022-09-20T07:10:28.202Z,17.25
2022-09-20T07:12:59.499Z,21.80
2022-09-20T07:15:26.856Z,41.95
2022-09-20T07:17:53.433Z,30.23
2022-09-20T07:20:21.536Z,33.42
2022-09-20T07:22:48.543Z,43.00
2022-09-20T07:25:15.196Z,45.80
2022-09-20T07:27:41.862Z,34.15
2022-09-20T07:30:09.056Z,37.92
2022-09-20T07:32:35.647Z,33.22
2022-09-20T07:35:02.640Z,36.60
2022-09-20T07:37:31.851Z,34.85
2022-09-20T07:42:35.272Z,25.35
2022-09-20T07:49:57.918Z,15.52
2022-09-20T07:52:24.574Z,14.10
2022-09-20T07:54:51.158Z,18.45
2022-09-20T07:57:17.798Z,20.05
2022-09-20T07:59:44.414Z,18.83
2022-09-20T08:02:14.996Z,15.18
2022-09-20T08:10:10.476Z,18.95
2022-09-20T08:17:50.944Z,24.20
2022-09-20T08:20:18.538Z,32.90
2022-09-20T08:22:56.447Z,36.00
2022-09-20T08:25:33.069Z,34.20
2022-09-20T08:28:00.192Z,31.77
2022-09-20T08:30:27.753Z,36.20
2022-09-20T08:32:56.127Z,41.42
2022-09-20T08:40:15.993Z,50.10
2022-09-20T08:47:49.549Z,52.15
2022-09-20T08:50:18.072Z,47.42
2022-09-20T09:00:40.826Z,22.10
2022-09-20T09:03:12.269Z,17.40
2022-09-20T09:05:39.851Z,19.65
2022-09-20T09:08:10.426Z,16.05
2022-09-20T09:13:05.271Z,26.08
2022-09-20T09:15:35.996Z,11.70
2022-09-20T09:18:03.362Z,21.70
2022-09-20T09:20:40.325Z,17.20
2022-09-20T09:25:41.290Z,14.65
2022-09-20T09:28:08.175Z,10.80
2022-09-20T09:30:36.312Z,15.25
2022-09-20T09:33:24.261Z,22.83
2022-09-20T09:36:06.025Z,14.48
2022-09-20T09:38:34.470Z,14.00
2022-09-20T09:41:02.439Z,8.90
2022-09-20T10:54:18.139Z,4.00
2022-09-20T11:04:30.397Z,5.38
2022-09-20T11:06:57.881Z,3.53
2022-09-20T11:14:39.657Z,7.22
2022-09-20T11:17:12.515Z,8.05
2022-09-20T11:20:07.695Z,4.43
2022-09-20T11:22:42.955Z,3.97
2022-09-20T11:25:29.637Z,3.78
2022-09-20T11:32:57.909Z,3.65
2022-09-20T11:35:34.938Z,3.28
2022-09-20T11:38:09.560Z,5.57
2022-09-20T11:45:34.380Z,2.78
2022-09-20T11:48:07.443Z,4.30
2022-09-20T11:50:34.856Z,1.85
2022-09-20T11:53:07.650Z,4.40
2022-09-20T11:55:42.565Z,3.05
2022-09-20T11:58:11.534Z,4.07
2022-09-20T12:00:40.785Z,4.07
2022-09-20T12:03:12.860Z,3.17
2022-09-20T12:05:41.490Z,2.83
2022-09-20T12:08:18.365Z,2.13
2022-09-20T12:10:55.381Z,3.30
2022-09-20T12:13:25.164Z,2.75
2022-09-20T12:16:18.116Z,4.70
2022-09-20T12:18:56.770Z,4.10
2022-09-20T12:21:23.501Z,2.85
2022-09-20T12:23:53.362Z,10.65
2022-09-20T12:26:20.897Z,3.38
2022-09-20T12:28:50.075Z,2.75
2022-09-20T12:31:22.642Z,2.40
2022-09-20T12:33:55.454Z,5.25
2022-09-20T12:36:22.101Z,1.88
2022-09-20T12:41:27.585Z,1.67
2022-09-20T12:46:41.115Z,3.13
2022-09-20T13:00:28.014Z,2.20
2022-09-20T13:02:55.194Z,2.60
2022-09-20T13:10:57.814Z,2.75
2022-09-20T13:13:41.315Z,2.10
2022-09-20T13:16:13.809Z,3.42
2022-09-20T13:18:41.232Z,3.45
2022-09-20T13:21:08.437Z,1.83
2022-09-20T13:23:43.086Z,4.13
2022-09-20T13:26:13.072Z,1.58
2022-09-20T13:31:37.545Z,2.80
2022-09-20T13:34:18.949Z,2.90
2022-09-20T13:36:45.895Z,4.97
2022-09-20T13:42:02.323Z,3.72
2022-09-20T13:44:34.425Z,2.83
2022-09-20T13:47:01.395Z,2.75
2022-09-20T13:49:31.839Z,2.90
2022-09-20T13:51:58.464Z,2.92
2022-09-20T13:54:32.089Z,1.90
2022-09-20T13:57:03.353Z,2.25
2022-09-20T13:59:33.553Z,3.13
2022-09-20T14:02:00.255Z,2.53
2022-09-20T14:04:28.568Z,2.38
2022-09-20T14:06:56.853Z,2.78
2022-09-20T14:09:27.141Z,1.65
2022-09-20T14:11:54.005Z,2.85
2022-09-20T14:14:22.333Z,2.70
2022-09-20T14:16:49.658Z,2.67
2022-09-20T14:19:17.790Z,4.93
2022-09-20T14:21:44.775Z,1.42
2022-09-20T14:24:14.476Z,3.65
2022-09-20T14:26:42.309Z,2.65
2022-09-20T14:29:27.847Z,2.78
2022-09-20T14:36:47.633Z,5.70
2022-09-20T14:39:15.485Z,2.70
2022-09-20T14:41:42.422Z,2.92
2022-09-20T14:47:16.022Z,4.82
2022-09-20T14:49:45.650Z,3.92
2022-09-20T14:52:27.557Z,5.00
2022-09-20T14:55:00.100Z,2.55
2022-09-20T14:57:27.040Z,2.75
2022-09-20T14:59:59.672Z,5.57
2022-09-20T15:02:28.179Z,4.10
2022-09-20T15:05:35.636Z,2.80
2022-09-20T15:10:29.448Z,5.57
2022-09-20T15:12:56.605Z,2.67
2022-09-20T15:15:23.249Z,3.72
2022-09-20T15:17:50.249Z,4.18
2022-09-20T15:20:24.260Z,5.50
2022-09-20T15:22:51.242Z,8.25
2022-09-20T15:25:22.199Z,4.47
2022-09-20T15:27:50.955Z,4.82
2022-09-20T15:30:19.927Z,6.15
2022-09-20T15:32:48.915Z,4.30
2022-09-20T15:35:16.436Z,4.68
2022-09-20T15:37:44.371Z,4.68
2022-09-20T15:40:11.548Z,2.67
2022-09-20T15:42:38.322Z,3.60
2022-09-20T15:45:06.518Z,3.75
2022-09-20T15:47:34.420Z,2.78
2022-09-20T15:50:01.104Z,4.07
2022-09-20T15:55:00.861Z,4.18
2022-09-20T15:57:27.538Z,6.05
2022-09-20T16:04:47.520Z,3.25
2022-09-20T16:07:16.174Z,3.83
2022-09-20T16:09:44.060Z,3.60
2022-09-20T16:12:10.765Z,2.25
2022-09-20T16:14:37.354Z,7.85
2022-09-20T16:17:05.020Z,2.33
2022-09-20T16:19:34.182Z,5.32
2022-09-20T16:26:58.383Z,4.95
2022-09-20T16:29:26.051Z,4.57
2022-09-20T16:31:53.977Z,8.23
2022-09-20T16:34:22.184Z,1.70
2022-09-20T16:36:53.403Z,7.53
2022-09-20T16:44:13.212Z,5.93
2022-09-20T16:51:34.583Z,5.35
2022-09-20T16:54:02.031Z,3.38
2022-09-20T16:56:29.755Z,4.07
2022-09-20T16:58:56.495Z,3.33
2022-09-20T17:01:23.407Z,5.60
2022-09-20T17:03:51.967Z,2.75
2022-09-20T17:06:19.306Z,4.45
2022-09-20T17:08:46.989Z,3.63
2022-09-20T17:11:15.872Z,3.63
2022-09-20T17:13:43.816Z,3.90
2022-09-20T17:18:42.030Z,3.45
2022-09-20T17:21:17.196Z,1.92
2022-09-20T17:23:50.650Z,2.72
2022-09-20T17:28:45.969Z,2.65
2022-09-20T17:31:14.991Z,2.67
2022-09-20T17:33:41.971Z,4.45
2022-09-20T17:36:19.789Z,2.03
2022-09-20T17:41:15.609Z,2.63
2022-09-20T17:43:43.850Z,4.28
2022-09-20T17:46:13.707Z,4.93
2022-09-20T17:48:42.299Z,3.63
2022-09-20T17:51:12.621Z,5.38
2022-09-20T17:53:39.580Z,3.80
2022-09-20T17:56:06.482Z,4.72
2022-09-20T17:58:36.441Z,3.80
2022-09-20T18:05:55.359Z,3.90
2022-09-20T18:08:21.983Z,3.22
2022-09-20T18:13:24.224Z,5.33
2022-09-20T18:15:52.065Z,4.00
2022-09-20T18:23:11.277Z,7.47
2022-09-20T18:33:16.110Z,5.07
2022-09-20T18:35:43.116Z,6.38
2022-09-20T18:38:12.065Z,4.43
2022-09-20T18:43:05.041Z,3.47
2022-09-20T18:45:32.500Z,1.60
2022-09-20T18:50:33.368Z,4.95
2022-09-20T18:55:29.157Z,3.28
2022-09-20T18:58:00.688Z,4.40
2022-09-20T19:03:09.973Z,4.75
2022-09-20T19:16:14.761Z,4.75
2022-09-20T19:18:56.377Z,3.60
2022-09-20T19:21:23.106Z,4.33
2022-09-20T19:24:04.813Z,2.75
2022-09-20T19:29:00.260Z,2.45
2022-09-20T19:31:28.610Z,2.58
2022-09-20T19:33:58.266Z,2.13
2022-09-20T19:36:27.342Z,2.75
2022-09-20T19:38:55.441Z,4.22
2022-09-20T19:41:28.192Z,2.03
2022-09-20T19:43:54.817Z,2.15
2022-09-20T19:49:14.435Z,3.38
2022-09-20T19:51:42.867Z,3.25
2022-09-20T19:54:12.867Z,2.85
2022-09-20T19:56:55.103Z,3.78
2022-09-20T19:59:23.014Z,4.10
2022-09-20T20:01:50.612Z,5.18
2022-09-20T20:12:18.562Z,3.17
2022-09-20T20:17:38.867Z,2.83
2022-09-20T20:23:08.666Z,1.77
2022-09-20T20:28:08.022Z,6.35
2022-09-20T20:30:34.984Z,6.22
2022-09-20T20:33:04.331Z,2.10
2022-09-20T20:35:31.412Z,3.92
2022-09-20T20:37:58.690Z,4.93
2022-09-20T20:40:25.718Z,2.83
2022-09-20T20:43:00.073Z,2.70
2022-09-20T20:47:56.193Z,4.03
2022-09-20T20:50:23.202Z,2.08
2022-09-20T20:52:54.051Z,3.38
2022-09-20T20:55:20.678Z,2.72
2022-09-20T20:57:57.435Z,2.42
2022-09-20T21:00:24.882Z,3.58
2022-09-20T21:03:01.343Z,5.65
2022-09-20T21:05:28.337Z,2.83
2022-09-20T21:07:55.145Z,3.83
2022-09-20T21:10:22.291Z,2.67
2022-09-20T21:12:53.179Z,3.42
2022-09-20T21:15:20.166Z,4.22
2022-09-20T21:22:44.242Z,3.92
2022-09-20T21:27:37.103Z,1.83
2022-09-20T21:30:04.049Z,3.15
2022-09-20T21:34:56.102Z,2.63
2022-09-20T21:37:22.732Z,2.63
2022-09-20T21:39:49.337Z,3.25
2022-09-20T21:42:17.185Z,4.05
2022-09-20T21:44:43.844Z,3.40
2022-09-20T21:47:10.444Z,3.83
2022-09-20T21:49:37.066Z,3.65
2022-09-20T21:52:03.769Z,3.42
2022-09-20T21:54:30.360Z,3.58
2022-09-20T21:56:59.339Z,3.42
2022-09-20T21:59:26.946Z,2.50
2022-09-20T22:01:55.182Z,4.85
2022-09-20T22:04:21.860Z,3.65
2022-09-20T22:06:48.574Z,7.95
2022-09-20T22:09:16.153Z,4.38
2022-09-20T22:11:44.706Z,8.82
2022-09-20T22:14:11.970Z,3.50
2022-09-20T22:16:40.155Z,3.08
2022-09-20T22:19:08.137Z,3.80
2022-09-20T22:21:36.804Z,3.35
2022-09-20T22:24:07.855Z,3.00
2022-09-20T22:26:35.982Z,4.05
2022-09-20T22:29:03.156Z,3.38
2022-09-20T22:33:57.182Z,3.55
2022-09-20T22:36:25.318Z,5.10
2022-09-20T22:38:52.813Z,3.40
2022-09-20T22:41:20.080Z,5.18
2022-09-20T22:43:47.109Z,7.38
2022-09-20T22:46:15.160Z,8.27
2022-09-20T22:48:42.476Z,10.60
2022-09-20T22:51:10.211Z,9.27
2022-09-20T22:53:37.001Z,6.60
2022-09-20T22:56:11.413Z,13.65
2022-09-20T22:58:41.915Z,10.80
2022-09-20T23:01:10.531Z,5.22
2022-09-20T23:03:38.241Z,7.68
2022-09-20T23:06:10.824Z,7.57
2022-09-20T23:08:37.717Z,8.57
2022-09-20T23:11:05.282Z,9.48
2022-09-20T23:13:32.417Z,8.77
2022-09-20T23:15:59.076Z,6.65
2022-09-20T23:18:25.888Z,9.90
2022-09-20T23:23:24.885Z,12.07
2022-09-20T23:25:51.561Z,14.05
2022-09-20T23:30:43.870Z,10.00
2022-09-20T23:33:10.542Z,10.18
2022-09-20T23:38:02.668Z,7.32
2022-09-20T23:40:29.281Z,7.35
2022-09-20T23:42:55.919Z,8.15
2022-09-20T23:45:22.756Z,9.15
2022-09-20T23:47:49.345Z,9.15
2022-09-20T23:50:15.974Z,10.93
2022-09-20T23:52:42.574Z,8.30
2022-09-20T23:55:09.269Z,8.15
2022-09-20T23:57:35.847Z,6.80
